createdAt,value
2017-05-21T00:02:23.844Z,71.00
2017-05-21T00:04:52.092Z,70.90
2017-05-21T00:07:20.328Z,71.20
2017-05-21T00:09:48.554Z,71.60
2017-05-21T00:12:16.808Z,71.40
2017-05-21T00:14:45.045Z,72.30
2017-05-21T00:17:13.280Z,71.90
2017-05-21T00:19:41.517Z,71.60
2017-05-21T00:22:09.764Z,71.40
2017-05-21T00:24:38.001Z,71.20
2017-05-21T00:27:06.263Z,71.10
2017-05-21T00:29:34.496Z,71.10
2017-05-21T00:32:02.730Z,71.10
2017-05-21T00:34:30.993Z,71.20
2017-05-21T00:36:59.229Z,71.10
2017-05-21T00:39:27.487Z,71.20
2017-05-21T00:41:55.748Z,70.70
2017-05-21T00:44:24.004Z,70.80
2017-05-21T00:46:52.238Z,71.00
2017-05-21T00:49:20.479Z,71.00
2017-05-21T00:51:48.744Z,70.70
2017-05-21T00:54:17.029Z,70.00
2017-05-21T00:56:45.274Z,70.00
2017-05-21T00:59:13.517Z,70.90
2017-05-21T01:01:41.752Z,71.00
2017-05-21T01:04:09.984Z,71.40
2017-05-21T01:06:38.213Z,71.30
2017-05-21T01:09:06.447Z,71.30
2017-05-21T01:11:34.690Z,71.60
2017-05-21T01:14:03.020Z,71.90
2017-05-21T01:16:31.248Z,72.70
2017-05-21T01:18:59.481Z,72.20
2017-05-21T01:21:27.720Z,72.40
2017-05-21T01:23:55.970Z,71.80
2017-05-21T01:26:24.197Z,72.20
2017-05-21T01:28:52.447Z,72.70
2017-05-21T01:31:20.667Z,72.30
2017-05-21T01:33:48.947Z,71.40
2017-05-21T01:36:17.180Z,71.20
2017-05-21T01:38:45.444Z,71.40
2017-05-21T01:41:13.675Z,71.20
2017-05-21T01:43:41.924Z,71.10
2017-05-21T01:46:10.150Z,70.90
2017-05-21T01:48:38.408Z,70.00
2017-05-21T01:51:06.641Z,70.40
2017-05-21T01:53:43.481Z,70.10
2017-05-21T01:56:11.724Z,70.20
2017-05-21T01:58:39.965Z,70.80
2017-05-21T02:01:08.198Z,71.20
2017-05-21T02:03:36.459Z,71.20
2017-05-21T02:06:04.693Z,70.70
2017-05-21T02:08:32.917Z,71.10
2017-05-21T02:11:01.147Z,71.60
2017-05-21T02:13:29.392Z,71.30
2017-05-21T02:15:57.649Z,71.30
2017-05-21T02:18:25.884Z,71.10
2017-05-21T02:20:54.141Z,71.10
2017-05-21T02:23:22.368Z,71.00
2017-05-21T02:25:50.612Z,71.70
2017-05-21T02:28:18.888Z,71.90
2017-05-21T02:30:47.126Z,71.20
2017-05-21T02:33:15.368Z,71.20
2017-05-21T02:35:43.591Z,71.30
2017-05-21T02:38:11.884Z,71.00
2017-05-21T02:40:40.109Z,71.00
2017-05-21T02:43:08.352Z,71.20
2017-05-21T02:45:36.575Z,72.40
2017-05-21T02:48:04.824Z,72.00
2017-05-21T02:50:33.053Z,73.20
2017-05-21T02:53:01.285Z,72.20
2017-05-21T02:55:29.530Z,71.40
2017-05-21T02:57:57.780Z,71.60
2017-05-21T03:00:26.004Z,71.30
2017-05-21T03:02:54.255Z,71.30
2017-05-21T03:05:22.635Z,71.50
2017-05-21T03:07:50.876Z,71.90
2017-05-21T03:10:19.111Z,71.30
2017-05-21T03:12:47.345Z,70.60
2017-05-21T03:15:15.577Z,70.00
2017-05-21T03:17:43.811Z,69.70
2017-05-21T03:20:12.072Z,69.90
2017-05-21T03:22:40.298Z,70.10
2017-05-21T03:25:08.544Z,70.50
2017-05-21T03:27:36.776Z,70.20
2017-05-21T03:30:05.039Z,69.70
2017-05-21T03:32:33.254Z,69.30
2017-05-21T03:35:01.507Z,69.00
2017-05-21T03:37:29.748Z,69.30
2017-05-21T03:39:57.969Z,69.50
2017-05-21T03:42:26.207Z,69.10
2017-05-21T03:44:54.441Z,69.40
2017-05-21T03:47:22.688Z,70.20
2017-05-21T03:49:50.934Z,71.00
2017-05-21T03:52:19.176Z,70.90
2017-05-21T03:54:47.402Z,70.70
2017-05-21T03:57:15.643Z,70.50
2017-05-21T03:59:43.887Z,70.40
2017-05-21T04:02:12.203Z,70.10
2017-05-21T04:04:40.431Z,70.40
2017-05-21T04:07:08.673Z,70.50
2017-05-21T04:09:36.903Z,70.90
2017-05-21T04:12:05.156Z,71.40
2017-05-21T04:14:33.378Z,70.80
2017-05-21T04:17:01.604Z,70.50
2017-05-21T04:19:29.839Z,70.90
2017-05-21T04:21:58.093Z,71.20
2017-05-21T04:24:26.335Z,71.40
2017-05-21T04:26:54.568Z,71.40
2017-05-21T04:29:22.818Z,71.30
2017-05-21T04:31:51.052Z,70.90
2017-05-21T04:34:19.287Z,71.10
2017-05-21T04:36:47.564Z,71.30
2017-05-21T04:39:15.801Z,71.30
2017-05-21T04:41:44.037Z,71.70
2017-05-21T04:44:12.297Z,71.00
2017-05-21T04:46:40.543Z,71.60
2017-05-21T04:49:08.772Z,71.60
2017-05-21T04:51:37.012Z,71.40
2017-05-21T04:54:05.244Z,71.10
2017-05-21T04:56:33.487Z,70.50
2017-05-21T04:59:01.732Z,69.90
2017-05-21T05:01:29.982Z,69.60
2017-05-21T05:03:58.226Z,69.80
2017-05-21T05:06:26.455Z,69.00
2017-05-21T05:08:54.684Z,68.80
2017-05-21T05:11:22.916Z,68.80
2017-05-21T05:13:51.144Z,68.80
2017-05-21T05:16:19.380Z,68.50
2017-05-21T05:18:47.633Z,67.90
2017-05-21T05:21:15.900Z,67.40
2017-05-21T05:23:44.148Z,67.70
2017-05-21T05:26:12.388Z,68.30
2017-05-21T05:28:40.622Z,68.00
2017-05-21T05:31:08.857Z,67.60
2017-05-21T05:33:37.092Z,66.80
2017-05-21T05:36:05.473Z,67.30
2017-05-21T05:38:33.721Z,66.90
2017-05-21T05:41:01.963Z,65.50
2017-05-21T05:43:30.216Z,65.80
2017-05-21T05:45:58.468Z,65.70
2017-05-21T05:48:26.708Z,65.30
2017-05-21T05:50:54.961Z,64.50
2017-05-21T05:53:23.208Z,63.90
2017-05-21T05:55:51.436Z,64.50
2017-05-21T05:58:19.711Z,65.00
2017-05-21T06:00:47.948Z,64.10
2017-05-21T06:03:16.180Z,64.10
2017-05-21T06:05:44.420Z,64.50
2017-05-21T06:08:12.672Z,64.30
2017-05-21T06:10:40.923Z,64.50
2017-05-21T06:13:09.162Z,63.50
2017-05-21T06:15:37.408Z,63.50
2017-05-21T06:18:05.657Z,62.90
2017-05-21T06:20:33.913Z,62.30
2017-05-21T06:23:02.139Z,61.60
2017-05-21T06:25:30.391Z,60.70
2017-05-21T06:27:58.630Z,60.80
2017-05-21T06:30:26.877Z,60.00
2017-05-21T06:32:55.105Z,60.30
2017-05-21T06:35:23.852Z,59.00
2017-05-21T06:37:52.079Z,60.40
2017-05-21T06:40:20.337Z,60.30
2017-05-21T06:42:48.576Z,59.70
2017-05-21T06:45:16.819Z,60.20
2017-05-21T06:47:45.053Z,59.80
2017-05-21T06:50:13.311Z,58.60
2017-05-21T06:52:41.586Z,58.10
2017-05-21T06:55:09.812Z,57.90
2017-05-21T06:57:38.055Z,58.00
2017-05-21T07:00:06.286Z,57.60
2017-05-21T07:02:34.589Z,56.60
2017-05-21T07:05:02.827Z,57.20
2017-05-21T07:07:31.071Z,56.90
2017-05-21T07:09:59.342Z,55.70
2017-05-21T07:12:27.579Z,55.00
2017-05-21T07:14:55.813Z,55.90
2017-05-21T07:17:24.067Z,55.20
2017-05-21T07:19:52.319Z,55.50
2017-05-21T07:22:20.572Z,54.10
2017-05-21T07:24:48.813Z,55.10
2017-05-21T07:27:17.068Z,54.30
2017-05-21T07:29:45.312Z,54.50
2017-05-21T07:32:13.543Z,54.30
2017-05-21T07:34:41.809Z,53.40
2017-05-21T07:37:10.040Z,52.30
2017-05-21T07:39:38.293Z,53.30
2017-05-21T07:42:06.523Z,52.20
2017-05-21T07:44:34.759Z,51.60
2017-05-21T07:47:03.029Z,50.30
2017-05-21T07:49:31.269Z,50.20
2017-05-21T07:51:59.516Z,51.30
2017-05-21T07:54:27.783Z,49.30
2017-05-21T07:56:56.008Z,49.50
2017-05-21T07:59:24.264Z,48.80
2017-05-21T08:01:52.493Z,48.50
2017-05-21T08:04:20.773Z,49.90
2017-05-21T08:06:49.005Z,48.20
2017-05-21T08:09:17.243Z,48.70
2017-05-21T08:11:45.491Z,48.20
2017-05-21T08:14:13.726Z,48.50
2017-05-21T08:16:41.961Z,48.30
2017-05-21T08:19:10.199Z,49.50
2017-05-21T08:21:38.452Z,49.10
2017-05-21T08:24:06.779Z,49.20
2017-05-21T08:26:35.009Z,48.60
2017-05-21T08:29:03.248Z,47.90
2017-05-21T08:31:31.484Z,48.20
2017-05-21T08:33:59.741Z,48.50
2017-05-21T08:36:27.980Z,47.70
2017-05-21T08:38:56.208Z,48.30
2017-05-21T08:41:24.479Z,48.00
2017-05-21T08:43:52.719Z,46.20
2017-05-21T08:46:20.963Z,47.00
2017-05-21T08:48:49.216Z,45.00
2017-05-21T08:51:17.449Z,45.00
2017-05-21T08:53:45.683Z,45.00
2017-05-21T08:56:13.929Z,43.40
2017-05-21T08:58:42.187Z,44.10
2017-05-21T09:01:10.420Z,44.50
2017-05-21T09:03:38.663Z,45.60
2017-05-21T09:06:06.899Z,45.50
2017-05-21T09:08:35.171Z,45.50
2017-05-21T09:11:03.410Z,46.10
2017-05-21T09:13:31.648Z,45.70
2017-05-21T09:15:59.891Z,45.50
2017-05-21T09:18:28.161Z,44.30
2017-05-21T09:20:56.391Z,44.60
2017-05-21T09:23:24.720Z,44.40
2017-05-21T09:25:52.966Z,44.30
2017-05-21T09:28:21.194Z,44.80
2017-05-21T09:30:49.424Z,44.40
2017-05-21T09:33:17.713Z,44.20
2017-05-21T09:35:45.971Z,44.00
2017-05-21T09:38:14.216Z,43.70
2017-05-21T09:40:42.471Z,44.30
2017-05-21T09:43:10.705Z,42.90
2017-05-21T09:45:38.959Z,44.90
2017-05-21T09:48:07.187Z,43.00
2017-05-21T09:50:35.440Z,43.50
2017-05-21T09:53:03.672Z,43.50
2017-05-21T09:55:31.936Z,41.30
2017-05-21T09:58:00.219Z,43.40
2017-05-21T10:00:28.478Z,42.90
2017-05-21T10:02:56.740Z,44.20
2017-05-21T10:05:24.991Z,43.80
2017-05-21T10:07:53.260Z,43.20
2017-05-21T10:10:21.495Z,42.40
2017-05-21T10:12:49.751Z,42.60
2017-05-21T10:15:17.992Z,41.50
2017-05-21T10:17:46.246Z,41.50
2017-05-21T10:20:14.692Z,41.50
2017-05-21T10:22:42.937Z,40.80
2017-05-21T10:25:11.167Z,40.50
2017-05-21T10:27:39.412Z,40.50
2017-05-21T10:30:07.676Z,40.10
2017-05-21T10:32:36.048Z,40.00
2017-05-21T10:35:04.312Z,39.60
2017-05-21T10:37:32.558Z,39.30
2017-05-21T10:40:00.813Z,38.50
2017-05-21T10:42:29.133Z,40.20
2017-05-21T10:44:57.391Z,40.20
2017-05-21T10:47:25.637Z,40.50
2017-05-21T10:49:53.882Z,39.30
2017-05-21T10:52:22.120Z,41.50
2017-05-21T10:54:50.355Z,41.10
2017-05-21T10:57:18.614Z,40.80
2017-05-21T10:59:46.891Z,41.10
2017-05-21T11:02:15.119Z,41.10
2017-05-21T11:04:43.380Z,42.20
2017-05-21T11:07:11.638Z,42.90
2017-05-21T11:09:39.872Z,39.70
2017-05-21T11:12:08.116Z,39.40
2017-05-21T11:14:36.339Z,37.80
2017-05-21T11:17:04.572Z,39.10
2017-05-21T11:19:32.809Z,38.00
2017-05-21T11:22:01.060Z,39.40
2017-05-21T11:24:29.287Z,39.70
2017-05-21T11:26:57.533Z,40.70
2017-05-21T11:29:25.767Z,40.40
2017-05-21T11:31:54.009Z,38.00
2017-05-21T11:34:22.282Z,37.30
2017-05-21T11:36:50.541Z,37.00
2017-05-21T11:39:18.793Z,37.20
2017-05-21T11:41:47.047Z,36.50
2017-05-21T11:44:15.284Z,37.70
2017-05-21T11:46:43.531Z,37.30
2017-05-21T11:49:11.784Z,36.70
2017-05-21T11:51:40.152Z,37.60
2017-05-21T11:54:08.396Z,36.80
2017-05-21T11:56:36.627Z,37.60
2017-05-21T11:59:04.883Z,37.90
2017-05-21T12:01:33.109Z,38.20
2017-05-21T12:04:01.357Z,38.00
2017-05-21T12:06:29.584Z,36.50
2017-05-21T12:08:58.245Z,36.90
2017-05-21T12:11:26.475Z,36.00
2017-05-21T12:13:54.718Z,37.20
2017-05-21T12:16:22.943Z,36.70
2017-05-21T12:18:51.304Z,35.10
2017-05-21T12:21:19.547Z,34.90
2017-05-21T12:23:47.775Z,35.80
2017-05-21T12:26:16.076Z,35.10
2017-05-21T12:28:44.324Z,36.40
2017-05-21T12:31:12.596Z,34.80
2017-05-21T12:33:40.835Z,37.80
2017-05-21T12:36:09.100Z,36.20
2017-05-21T12:38:37.348Z,36.30
2017-05-21T12:41:05.583Z,34.50
2017-05-21T12:43:33.808Z,36.90
2017-05-21T12:46:02.052Z,35.60
2017-05-21T12:48:36.361Z,34.60
2017-05-21T12:51:04.604Z,38.20
2017-05-21T12:53:32.848Z,37.20
2017-05-21T12:56:01.148Z,37.30
2017-05-21T12:58:29.400Z,38.10
2017-05-21T13:00:57.649Z,38.20
2017-05-21T13:03:25.889Z,36.60
2017-05-21T13:05:54.136Z,38.50
2017-05-21T13:08:22.385Z,39.60
2017-05-21T13:10:50.623Z,38.70
2017-05-21T13:13:18.864Z,38.20
2017-05-21T13:21:35.368Z,36.00
2017-05-21T13:24:03.727Z,36.40
2017-05-21T13:26:31.956Z,36.10
2017-05-21T13:29:00.207Z,36.10
2017-05-21T13:31:28.438Z,35.50
2017-05-21T13:33:56.713Z,35.90
2017-05-21T13:36:24.958Z,36.60
2017-05-21T13:38:53.227Z,36.00
2017-05-21T13:41:21.468Z,36.40
2017-05-21T13:43:49.720Z,35.50
2017-05-21T13:46:17.979Z,36.30
2017-05-21T13:48:47.157Z,36.60
2017-05-21T13:51:15.444Z,38.30
2017-05-21T13:53:43.683Z,38.00
2017-05-21T13:56:11.937Z,39.20
2017-05-21T13:58:40.191Z,40.10
2017-05-21T14:01:08.444Z,38.80
2017-05-21T14:03:36.697Z,38.60
2017-05-21T14:06:04.955Z,36.80
2017-05-21T14:08:33.217Z,38.10
2017-05-21T14:11:01.452Z,38.60
2017-05-21T14:13:29.696Z,37.20
2017-05-21T14:15:57.942Z,36.40
2017-05-21T14:18:26.196Z,36.40
2017-05-21T14:20:54.515Z,37.00
2017-05-21T14:23:22.782Z,36.00
2017-05-21T14:25:51.061Z,36.90
2017-05-21T14:28:19.323Z,36.30
2017-05-21T14:30:47.553Z,36.00
2017-05-21T14:33:15.819Z,40.30
2017-05-21T14:35:44.071Z,38.70
2017-05-21T14:38:12.370Z,38.80
2017-05-21T14:40:40.621Z,38.90
2017-05-21T14:43:08.860Z,37.60
2017-05-21T14:45:37.103Z,37.50
2017-05-21T14:48:05.360Z,38.70
2017-05-21T14:50:33.605Z,40.90
2017-05-21T14:53:01.839Z,38.70
2017-05-21T14:55:30.085Z,39.40
2017-05-21T14:57:58.328Z,38.80
2017-05-21T15:00:26.590Z,39.40
2017-05-21T15:02:54.830Z,39.10
2017-05-21T15:05:23.465Z,38.50
2017-05-21T15:07:51.735Z,37.90
2017-05-21T15:10:19.980Z,38.60
2017-05-21T15:12:48.335Z,37.40
2017-05-21T15:15:16.559Z,36.80
2017-05-21T15:17:44.821Z,36.90
2017-05-21T15:20:13.052Z,38.30
2017-05-21T15:22:41.317Z,36.60
2017-05-21T15:25:09.560Z,37.30
2017-05-21T15:27:37.847Z,36.60
2017-05-21T15:30:06.084Z,37.00
2017-05-21T15:32:34.348Z,37.30
2017-05-21T15:35:02.590Z,37.60
2017-05-21T15:37:30.840Z,37.70
2017-05-21T15:39:59.083Z,36.30
2017-05-21T15:42:27.318Z,36.00
2017-05-21T15:44:55.589Z,37.00
2017-05-21T15:47:23.845Z,36.70
2017-05-21T15:49:52.131Z,37.00
2017-05-21T15:52:19.704Z,37.00
2017-05-21T15:54:47.968Z,35.70
2017-05-21T16:00:10.155Z,36.90
2017-05-21T16:02:38.401Z,37.10
2017-05-21T16:05:07.227Z,36.70
2017-05-21T16:07:38.572Z,36.30
2017-05-21T16:10:06.815Z,34.20
2017-05-21T16:12:35.061Z,33.60
2017-05-21T16:15:03.299Z,34.00
2017-05-21T16:17:31.532Z,34.20
2017-05-21T16:19:59.782Z,34.40
2017-05-21T16:22:28.029Z,35.10
2017-05-21T16:24:56.293Z,35.40
2017-05-21T16:27:24.536Z,35.80
2017-05-21T16:29:52.789Z,35.90
2017-05-21T16:32:21.057Z,35.50
2017-05-21T16:34:49.302Z,35.30
2017-05-21T16:37:17.640Z,33.30
2017-05-21T16:39:45.889Z,31.00
2017-05-21T16:42:14.127Z,29.60
2017-05-21T16:44:42.378Z,28.70
2017-05-21T16:47:10.635Z,28.40
2017-05-21T16:49:38.891Z,28.00
2017-05-21T16:52:07.189Z,27.30
2017-05-21T16:54:35.444Z,28.70
2017-05-21T16:57:03.672Z,30.20
2017-05-21T16:59:31.944Z,30.90
2017-05-21T17:02:00.198Z,31.40
2017-05-21T17:04:28.456Z,31.80
2017-05-21T17:06:56.704Z,33.20
2017-05-21T17:09:24.957Z,32.90
2017-05-21T17:11:53.212Z,33.40
2017-05-21T17:14:21.449Z,34.20
2017-05-21T17:16:49.712Z,34.90
2017-05-21T17:19:17.973Z,35.90
2017-05-21T17:21:46.219Z,36.80
2017-05-21T17:24:14.529Z,37.10
2017-05-21T17:26:42.792Z,37.90
2017-05-21T17:29:11.036Z,38.30
2017-05-21T17:31:39.293Z,38.70
2017-05-21T17:34:07.532Z,39.10
2017-05-21T17:36:35.780Z,39.20
2017-05-21T17:39:04.109Z,40.20
2017-05-21T17:41:32.357Z,39.80
2017-05-21T17:44:00.615Z,39.90
2017-05-21T17:46:28.852Z,40.80
2017-05-21T17:48:57.108Z,40.40
2017-05-21T17:51:25.356Z,40.40
2017-05-21T17:53:53.607Z,40.90
2017-05-21T17:56:21.843Z,40.80
2017-05-21T17:58:50.104Z,40.90
2017-05-21T18:01:18.352Z,41.40
2017-05-21T18:03:46.618Z,41.50
2017-05-21T18:06:14.862Z,42.00
2017-05-21T18:08:43.097Z,41.50
2017-05-21T18:11:11.349Z,41.90
2017-05-21T18:13:39.580Z,41.90
2017-05-21T18:16:07.828Z,42.50
2017-05-21T18:18:36.077Z,42.30
2017-05-21T18:21:04.323Z,43.00
2017-05-21T18:23:32.555Z,43.00
2017-05-21T18:26:00.869Z,43.20
2017-05-21T18:28:29.151Z,43.30
2017-05-21T18:30:57.426Z,43.70
2017-05-21T18:33:25.652Z,43.80
2017-05-21T18:35:53.955Z,44.30
2017-05-21T18:38:22.241Z,45.00
2017-05-21T18:40:50.476Z,45.60
2017-05-21T18:43:18.719Z,45.60
2017-05-21T18:45:46.956Z,46.50
2017-05-21T18:48:15.225Z,46.30
2017-05-21T18:50:44.146Z,46.40
2017-05-21T18:53:12.415Z,47.50
2017-05-21T18:55:40.652Z,48.10
2017-05-21T18:58:08.912Z,48.40
2017-05-21T19:00:37.182Z,48.80
2017-05-21T19:03:05.447Z,50.80
2017-05-21T19:05:33.697Z,51.10
2017-05-21T19:08:01.940Z,50.60
2017-05-21T19:10:30.171Z,51.40
2017-05-21T19:12:58.446Z,50.30
2017-05-21T19:15:26.694Z,51.50
2017-05-21T19:17:54.929Z,51.30
2017-05-21T19:20:23.181Z,50.20
2017-05-21T19:22:51.435Z,52.00
2017-05-21T19:25:19.692Z,52.10
2017-05-21T19:27:47.932Z,51.50
2017-05-21T19:30:16.167Z,51.80
2017-05-21T19:32:44.410Z,52.70
2017-05-21T19:35:13.403Z,50.90
2017-05-21T19:37:41.687Z,52.00
2017-05-21T19:40:09.951Z,51.50
2017-05-21T19:42:38.206Z,52.10
2017-05-21T19:45:06.448Z,52.10
2017-05-21T19:47:34.685Z,53.50
2017-05-21T19:50:02.970Z,53.70
2017-05-21T19:52:31.310Z,54.00
2017-05-21T19:54:59.547Z,54.30
2017-05-21T19:57:27.809Z,54.00
2017-05-21T19:59:56.051Z,54.30
2017-05-21T20:02:24.312Z,53.80
2017-05-21T20:04:52.550Z,54.60
2017-05-21T20:07:20.795Z,54.60
2017-05-21T20:09:49.035Z,54.90
2017-05-21T20:12:17.374Z,54.70
2017-05-21T20:14:45.628Z,54.60
2017-05-21T20:17:13.887Z,55.10
2017-05-21T20:19:42.145Z,54.30
2017-05-21T20:22:10.407Z,54.40
2017-05-21T20:24:38.641Z,55.10
2017-05-21T20:27:06.868Z,55.90
2017-05-21T20:29:35.112Z,56.30
2017-05-21T20:32:03.357Z,57.00
2017-05-21T20:34:31.612Z,57.20
2017-05-21T20:36:59.842Z,56.90
2017-05-21T20:39:28.094Z,57.40
2017-05-21T20:41:56.337Z,57.80
2017-05-21T20:44:24.596Z,58.10
2017-05-21T20:46:52.832Z,58.00
2017-05-21T20:49:21.061Z,58.10
2017-05-21T20:51:52.660Z,58.20
2017-05-21T20:54:20.918Z,58.50
2017-05-21T20:56:49.147Z,58.60
2017-05-21T20:59:17.381Z,58.30
2017-05-21T21:01:45.628Z,58.40
2017-05-21T21:04:13.860Z,58.20
2017-05-21T21:06:42.109Z,58.30
2017-05-21T21:09:10.340Z,58.40
2017-05-21T21:11:38.595Z,58.50
2017-05-21T21:14:06.823Z,58.50
2017-05-21T21:16:35.083Z,58.80
2017-05-21T21:19:03.326Z,58.50
2017-05-21T21:21:31.565Z,58.00
2017-05-21T21:23:59.797Z,58.00
2017-05-21T21:26:28.035Z,57.80
2017-05-21T21:28:56.298Z,57.80
2017-05-21T21:31:24.560Z,57.90
2017-05-21T21:33:52.825Z,57.90
2017-05-21T21:36:21.056Z,57.80
2017-05-21T21:38:49.300Z,57.40
2017-05-21T21:41:17.544Z,57.40
2017-05-21T21:43:45.785Z,57.50
2017-05-21T21:46:14.023Z,57.60
2017-05-21T21:48:42.273Z,57.50
2017-05-21T21:51:10.514Z,57.60
2017-05-21T21:53:38.746Z,57.80
2017-05-21T21:56:06.987Z,57.90
2017-05-21T21:58:35.235Z,58.10
2017-05-21T22:01:03.464Z,58.50
2017-05-21T22:03:31.756Z,58.10
2017-05-21T22:06:00.002Z,58.20
2017-05-21T22:08:28.241Z,58.40
2017-05-21T22:10:56.496Z,58.40
2017-05-21T22:13:24.742Z,58.30
2017-05-21T22:15:52.988Z,58.60
2017-05-21T22:18:21.309Z,58.50
2017-05-21T22:20:49.564Z,58.60
2017-05-21T22:23:17.804Z,59.30
2017-05-21T22:25:46.049Z,59.40
2017-05-21T22:28:14.298Z,59.60
2017-05-21T22:30:42.543Z,59.30
2017-05-21T22:33:10.771Z,59.60
2017-05-21T22:35:39.043Z,60.00
2017-05-21T22:38:07.271Z,59.70
2017-05-21T22:40:35.500Z,60.10
2017-05-21T22:43:03.744Z,59.50
2017-05-21T22:45:31.982Z,60.10
2017-05-21T22:48:00.233Z,59.70
2017-05-21T22:50:28.479Z,59.80
2017-05-21T22:52:56.756Z,59.70
2017-05-21T22:55:25.011Z,60.00
2017-05-21T22:57:53.256Z,60.10
2017-05-21T23:00:21.516Z,60.60
2017-05-21T23:02:49.796Z,60.70
2017-05-21T23:05:18.312Z,60.60
2017-05-21T23:07:46.567Z,60.90
2017-05-21T23:10:14.820Z,61.20
2017-05-21T23:12:43.113Z,61.60
2017-05-21T23:15:11.355Z,61.70
2017-05-21T23:17:39.598Z,61.60
2017-05-21T23:20:07.851Z,61.60
2017-05-21T23:22:36.084Z,62.00
2017-05-21T23:25:04.335Z,62.00
2017-05-21T23:27:32.583Z,62.20
2017-05-21T23:30:00.833Z,62.50
2017-05-21T23:32:29.064Z,62.50
2017-05-21T23:34:57.362Z,62.10
2017-05-21T23:37:25.589Z,61.60
2017-05-21T23:39:53.865Z,61.90
2017-05-21T23:42:22.095Z,62.00
2017-05-21T23:44:50.343Z,62.20
2017-05-21T23:47:18.589Z,62.50
2017-05-21T23:49:46.839Z,62.50
2017-05-21T23:52:15.109Z,62.50
2017-05-21T23:54:43.348Z,62.90
2017-05-21T23:57:11.599Z,62.50
2017-05-21T23:59:39.853Z,62.80
